5km Les Foulees Lamentinoises 2019 le 27/01/2019

Recherche par Dossard : par Nom : par Club :

Place Dossard Nom Prenom Cat. Pl. Cat. Temps Club Sexe
1 149 JEAN-ELIE GEORGES JU 1 00:16:38 MAIRIE SPORTIVE M
2 146 CHARTON JULIEN SE 1 00:16:40 CLUB PELEEN M
3 147 GLADONNE GERALD SE 2 00:16:44 CLUB PELEEN M
4 75 BOLOTTE FRANÇOIS SE 3 00:18:08 M
5 152 LINEL LAURENT SE 4 00:18:24 MAIRIE SPORTIVE M
6 77 JEANNOT JEAN-ETIENNE V2 1 00:18:33 GOLDEN STAR M
7 160 BLACODON THIERRY V1 1 00:18:48 POLICE SPORTIVE M
8 137 ZACHARIE CHARLES-DENIS V2 2 00:18:51 CLUB COLONIAL M
9 161 RAGOT OLIVIER SE 5 00:19:02 POLICE SPORTIVE M
10 110 LANDRY OLIVIER V1 2 00:19:03 M
11 133 FONTAINE LIONEL JU 2 00:20:05 ASSAUT SAINT-PIERRE M
12 138 CLOTHO JEAN DENIS SE 6 00:20:09 ASSAUT SAINT-PIERRE M
13 20 DILO YANN CA 1 00:20:11 M
14 159 ARTHERON LUDIVING SE 7 00:20:14 POLICE SPORTIVE M
15 124 DONATIEN ANDERSON ES 1 00:20:43 TIGER TEAM 972 M
16 143 LAURENT ASTRID V2 1 00:20:44 MAIRIE SPORTIVE F
17 4 ORVILLE LAURENT SE 8 00:21:02 M
18 144 EMELIE ROSELINE SE 1 00:21:25 MAIRIE SPORTIVE F
19 125 MARCÉ MARC-MICHEL V1 3 00:21:41 M
20 109 AMPHARES YANNIS V1 4 00:21:53 RENOVATION M
21 11 LÉGLISE TIMÉO CA 2 00:22:13 M
22 88 COUDRAY ALEXANDRINE SE 2 00:22:21 GOLDEN STAR F
23 49 SAINVILLE FRANCIS V1 5 00:23:13 M
24 80 DUTRUEL AUDREY SE 3 00:23:29 GOLDEN STAR F
25 12 THOMASI FABRICE V2 3 00:23:35 M
26 190 BELLANCE HUGUES V1 6 00:23:40 ASCO INTER ATLAS M
27 145 DORE SOPHIA SE 4 00:24:05 MAIRIE SPORTIVE F
28 123 SOLER JOCELYNE V2 2 00:24:09 TIGER TEAM 972 F
29 184 BALTIDE ERIC V2 4 00:24:14 M
30 39 CRATER ANGČLE SE 5 00:24:15 F
31 121 MARCHAND CALVIN CA 3 00:24:24 M
32 187 MERINE SYLVIE V1 1 00:24:31 ASCO INTER ATLAS F
33 30 SALINIERE JEAN ROGER V1 7 00:25:16 M
34 33 HEJOAKA FRANCOISE V2 3 00:25:23 F
35 148 RABIA NICOLAS V2 5 00:25:41 MAIRIE SPORTIVE M
36 59 BONIFACE REMY SE 9 00:25:56 M
37 595 TROMPETTE EMMANUEL V3 1 00:26:01 MAIRIE SPORTIVE M
38 56 JOSEPH KARENE SE 6 00:26:02 GOLDEN STAR F
39 81 CONSTANCE GILL V1 8 00:26:02 M
40 158 BELLONY SOELI V1 2 00:26:32 POLICE SPORTIVE F
41 28 FONTAINE FRANTZ V2 6 00:26:51 M
42 35 MITH PIERRE V2 7 00:26:51 M
43 90 SERALINE PASCAL V2 8 00:26:53 M
44 129 VOINCHET JENNIFER SE 7 00:26:58 TIGER TEAM 972 F
45 34 DAMES CELINE SE 8 00:27:03 F
46 168 BRADOR HUGO V1 9 00:27:32 CECAF 972 M
47 169 ARMANGE WILLY V1 10 00:27:33 CECAF 972 M
48 40 HAUTERVILLE ULRICK SE 10 00:27:38 M
49 79 MARRAUD DES GROTTES MARIE-PASCALE V1 3 00:27:39 F
50 176 GERME MARIO V1 11 00:27:53 M
51 106 FILET FRANTZ V1 12 00:27:53 AMCF M
52 46 CHARET ERIC V2 9 00:27:54 M
53 50 TRAMIS CHARLES EDOUARD V2 10 00:28:27 AMCF M
54 102 THOMASI CARINE V1 4 00:28:39 F
55 151 RIDARCH PATRICE SE 11 00:28:41 MAIRIE SPORTIVE M
56 150 KERBRAT PASCAL V2 11 00:28:41 MAIRIE SPORTIVE M
57 185 MANUEL YVAN V1 13 00:28:55 GOLDEN STAR M
58 67 THURAM ULLIEN MARIE-CHRISTINE V2 4 00:28:59 F
59 69 VIELET GAELLE SE 9 00:29:13 F
60 163 LARCHER CHRISTIAN V4 1 00:29:21 A C SALEEN M
61 5 NELZY OLIVIER V2 12 00:29:40 M
62 25 PETIOT MIREILLE V2 5 00:29:58 F
63 93 PRIVAT MICHEL V3 2 00:29:58 M
64 63 LOUISON DANIEL V2 13 00:30:17 M
65 167 OTHONY OLIVIER V1 14 00:30:28 CECAF 972 M
66 139 BERNARD ISABELLE V1 5 00:30:30 F
67 194 PAIN COLETTE V3 1 00:30:30 GOLDEN STAR F
68 48 LOISEL VALENTIN SE 12 00:30:43 M
69 112 OUALLES MARTINEZ LIZ V1 6 00:30:46 F
70 166 LEJUSTE JOSIANE V3 2 00:30:53 RANDONNEE SANS FRONTIERE F
71 193 THOMASSIN YANNIS V1 15 00:31:11 CLUB COLONIAL M
72 181 SERCK BENOÎT V2 14 00:31:14 M
73 186 SABALOT SANDRINE V1 7 00:31:24 F
74 8 MACARIE MIGUEL V3 3 00:31:34 M
75 52 RENE AUBIN ROBERT V3 4 00:31:34 M
76 103 FERATY THIERRY V1 16 00:31:49 M
77 126 DACLINAT MARIE-CLAUDE V1 8 00:31:56 TIGER TEAM 972 F
78 140 CRIQUET BRUNO V2 15 00:31:56 M
79 164 ?Dossard #164 SE 13 00:31:58 M
80 89 MARGUERITE SANDRA V1 9 00:32:04 GOLDEN STAR F
81 41 FRESINO EVELYNE V2 6 00:32:09 F
82 111 LABROUSSE SEVERINE SE 10 00:32:14 F
83 117 VILO GLADYS SE 11 00:32:28 F
84 57 LARGEN PATRICIA V1 10 00:32:29 F
85 66 MINATCHY MAGALIE SE 12 00:32:30 F
86 45 THEGAT YANNICK V2 7 00:32:31 F
87 43 MARIE-LUCE NADINE V2 8 00:32:31 F
88 105 MORLAN MARIE JOSÉE V2 9 00:32:33 F
89 191 PASTEL CLARISSE SE 13 00:32:38 F
90 61 BORIEL NICOLE V1 11 00:32:41 AIGLON DU LAMENTIN F
91 7 FARDIN JOEL V1 17 00:32:47 M
92 42 BAVARIN PATRICIA V2 10 00:32:49 F
93 162 CABORD MARGAUX SE 14 00:32:58 F
94 192 LETCHIMY ELODIE SE 15 00:33:05 F
95 142 LODEON MARGAUX SE 16 00:33:08 F
96 9 ZOU RENÉE-LAURE V2 11 00:33:18 F
97 94 BOURROUET LAURENCE V1 12 00:33:19 F
98 118 MADELINE RENAUD V2 16 00:33:27 M
99 58 MASSEE RACHEL V1 13 00:33:28 GOLDEN STAR F
100 98 SULTY SIMONE V2 12 00:33:39 F
101 92 MOSCOU LUCIENNE V1 14 00:33:45 F
102 154 MARTOT MARILYNE V2 13 00:33:46 US ROBERT F
103 174 DAGOBERT FABRICE V1 18 00:33:47 CECAF 972 M
104 15 DROIN SIMON SE 14 00:33:54 M
105 64 WOMBA CECILE V2 14 00:34:02 F
106 171 EMICA ESTELLE SE 17 00:34:09 CECAF 972 F
107 180 RAPON JEAN-MANUEL V3 5 00:34:12 M
108 136 PAILLA KARINE V2 15 00:34:14 CLUB COLONIAL F
109 179 AGOT LAUREN SE 18 00:34:15 F
110 60 ELISEE JOCELYNE V2 16 00:34:16 GOLDEN STAR F
111 170 CATORC PASCAL SE 15 00:34:24 CECAF 972 M
112 36 CANTINOL SANDRA V2 17 00:34:27 F
113 107 MARIE LUCE JEAN FRANCOIS V1 19 00:34:30 M
114 13 VICTOIRE YVETTE V2 18 00:34:34 CLUB MANIKOU F
115 100 DAGY JULIE SE 19 00:35:31 F
116 130 FRANCOIS-LUBIN THERESE V1 15 00:35:33 F
117 32 BAUBION EMILI SE 20 00:35:34 F
118 10 LÉGLISE PIERRE-YVES V1 20 00:35:34 M
119 155 GAUVIN SONIA V2 19 00:35:34 AIGLON DU LAMENTIN F
120 156 PALIX DERAMPE FABIENNE V2 20 00:35:44 F
121 127 ALIBO JEAN LOUIS CHANTAL V2 21 00:35:46 F
122 26 NOUREL REBECCA V1 16 00:35:59 F
123 68 TELCIDE NELLY DENISE V2 22 00:36:06 F
124 178 SIDOINE SYLVIA V3 3 00:36:06 F
125 153 LAUREAT KELIA CA 1 00:36:07 F
126 87 ROUDER MURIELLE V2 23 00:36:10 CLUB COLONIAL F
127 86 WUATTIER ANNE MARIE V2 24 00:36:10 CLUB COLONIAL F
128 101 LESTRADET ISABELLE V2 25 00:36:29 F
129 38 MAGELLAN PAMPHILE KATIA V1 17 00:36:32 F
130 116 NATTES GUY V3 6 00:37:21 M
131 177 SIDOINE STÉPHANIE SE 21 00:37:27 F
132 70 BOURGEOIS MARIE-HELENE V2 26 00:37:28 AIGLON DU LAMENTIN F
133 55 SHORTIE ANGÉLIQUE SE 22 00:37:36 F
134 78 DESERT YVON V2 17 00:37:36 M
135 141 PRUDENT LAURENT SE 16 00:37:42 M
136 132 TELGA MONIQUE SE 23 00:37:47 F
137 2 PERCIN NICOLE V2 27 00:37:48 F
138 65 PASTEL JESSICA SE 24 00:38:01 F
139 37 MITH SONIA V2 28 00:38:07 F
140 96 PROTHERY ISABELLE V2 29 00:38:17 F
141 131 DERNE MARIE-CLAUDE V2 30 00:38:19 F
142 16 DROIN HELAN VALERIE SE 25 00:38:22 F
143 135 COURTEIX MYRIAM V2 31 00:38:47 F
144 17 CLAIRICIA CYNTIA V1 18 00:38:48 F
145 97 TOUSSAINT NADIA SE 26 00:38:51 F
146 1 FEMMELAT CHRISTINE V2 32 00:38:51 F
147 53 TOUSSAINT TANIA SE 27 00:38:51 GOLDEN STAR F
148 44 ACHILLE CHANTAL V2 33 00:38:59 F
149 119 LACOUR FATHIA V1 19 00:39:43 F
150 120 MARCHAND JESS V1 20 00:39:43 F
151 128 AGASSEAU FRANÇOISE V1 21 00:39:50 F
152 99 SULTY SYLVIE V2 34 00:40:09 F
153 19 DUNON CLAUDIA V1 22 00:40:28 F
154 18 GERMANY FRIDA FRIDA V1 23 00:40:56 F
155 73 MELINARD NATHALIE V1 24 00:41:04 F
156 173 RENEAUME LAURA SE 28 00:41:08 CECAF 972 F
157 122 THOMASI CELIAS V1 25 00:41:36 F
158 95 FELICITE HENRI V2 18 00:41:43 CGOS M
159 114 DEFORT DANIELLE V2 35 00:41:55 F
160 175 ROSELMAC ELVIRE V2 36 00:42:35 F
161 21 NICOLAS MYLENE V1 26 00:42:35 F
162 3 DRU MARIE-CLAUDE V1 27 00:43:05 F
163 14 JUPITER KARINE V1 28 00:43:05 F
164 134 MAREM MARYSE V2 37 00:43:25 OSONS DECOUVRIR F
165 74 MELINARD OLIVIER V1 21 00:45:04 M
166 182 DEPIESSE FREDERIC V2 19 00:46:18 AIGLON DU LAMENTIN M
167 113 POMPUI PATRICIA V2 38 00:48:30 AIGLON DU LAMENTIN F
168 24 DOYEN MANUELA V2 39 00:48:32 F
169 157 FONCLAUD JOSUELA SE 29 00:49:08 F
170 165 KOURY ADELINE V3 4 00:49:10 F
171 6 LOCATIN MONIQUE V2 40 00:49:22 F
172 188 MAGLOIRE RENEE V2 41 00:49:22 AIGLON DU LAMENTIN F
173 115 LOUISON MICHELE V3 5 00:50:54 AIGLON DU LAMENTIN F
174 189 DEPIESSE JEAN DANIEL V4 2 00:53:33 DARAN DOLLAISE 94 M